sensor_id;sensor_type;location;lat;lon;timestamp;P1;durP1;ratioP1;P2;durP2;ratioP2
61393;SDS011;48555;50.952;-0.120;2023-08-31T06:09:24;7.32;;;3.40;;
61393;SDS011;48555;50.952;-0.120;2023-08-31T06:11:49;6.63;;;3.13;;
61393;SDS011;48555;50.952;-0.120;2023-08-31T06:14:15;8.23;;;3.28;;
61393;SDS011;48555;50.952;-0.120;2023-08-31T06:16:40;6.70;;;3.15;;
61393;SDS011;48555;50.952;-0.120;2023-08-31T06:19:05;8.23;;;3.42;;
61393;SDS011;48555;50.952;-0.120;2023-08-31T06:21:31;6.13;;;3.30;;
61393;SDS011;48555;50.952;-0.120;2023-08-31T06:23:56;7.40;;;3.38;;
61393;SDS011;48555;50.952;-0.120;2023-08-31T06:26:21;8.00;;;3.63;;
61393;SDS011;48555;50.952;-0.120;2023-08-31T06:28:47;9.43;;;4.30;;
61393;SDS011;48555;50.952;-0.120;2023-08-31T06:31:12;5.68;;;3.47;;
61393;SDS011;48555;50.952;-0.120;2023-08-31T06:33:37;7.70;;;3.88;;
61393;SDS011;48555;50.952;-0.120;2023-08-31T06:36:03;6.63;;;3.42;;
61393;SDS011;48555;50.952;-0.120;2023-08-31T06:38:28;5.93;;;3.15;;
61393;SDS011;48555;50.952;-0.120;2023-08-31T06:40:54;5.35;;;3.05;;
61393;SDS011;48555;50.952;-0.120;2023-08-31T06:43:24;5.07;;;3.05;;
61393;SDS011;48555;50.952;-0.120;2023-08-31T06:45:51;5.97;;;3.08;;
61393;SDS011;48555;50.952;-0.120;2023-08-31T06:48:17;5.57;;;3.20;;
61393;SDS011;48555;50.952;-0.120;2023-08-31T06:50:43;7.15;;;3.17;;
61393;SDS011;48555;50.952;-0.120;2023-08-31T06:53:08;7.28;;;3.30;;
61393;SDS011;48555;50.952;-0.120;2023-08-31T06:55:34;5.85;;;3.03;;
61393;SDS011;48555;50.952;-0.120;2023-08-31T06:58:00;7.47;;;3.22;;
61393;SDS011;48555;50.952;-0.120;2023-08-31T07:00:27;5.28;;;3.03;;
61393;SDS011;48555;50.952;-0.120;2023-08-31T07:02:52;6.93;;;2.90;;
61393;SDS011;48555;50.952;-0.120;2023-08-31T07:05:17;5.78;;;2.83;;
61393;SDS011;48555;50.952;-0.120;2023-08-31T07:07:50;8.52;;;3.00;;
61393;SDS011;48555;50.952;-0.120;2023-08-31T07:10:15;7.05;;;3.10;;
61393;SDS011;48555;50.952;-0.120;2023-08-31T07:12:41;5.57;;;2.80;;
61393;SDS011;48555;50.952;-0.120;2023-08-31T07:15:06;5.63;;;3.17;;
61393;SDS011;48555;50.952;-0.120;2023-08-31T07:17:32;5.82;;;2.72;;
61393;SDS011;48555;50.952;-0.120;2023-08-31T07:19:57;9.27;;;2.97;;
61393;SDS011;48555;50.952;-0.120;2023-08-31T07:22:23;8.48;;;3.00;;
61393;SDS011;48555;50.952;-0.120;2023-08-31T07:24:48;5.00;;;2.70;;
61393;SDS011;48555;50.952;-0.120;2023-08-31T07:27:15;5.78;;;3.22;;
61393;SDS011;48555;50.952;-0.120;2023-08-31T07:29:40;7.30;;;3.22;;
61393;SDS011;48555;50.952;-0.120;2023-08-31T07:32:05;6.40;;;3.17;;
61393;SDS011;48555;50.952;-0.120;2023-08-31T07:34:31;5.88;;;2.72;;
61393;SDS011;48555;50.952;-0.120;2023-08-31T07:36:56;7.72;;;3.10;;
61393;SDS011;48555;50.952;-0.120;2023-08-31T07:39:21;5.13;;;2.58;;
61393;SDS011;48555;50.952;-0.120;2023-08-31T07:41:47;6.38;;;2.97;;
61393;SDS011;48555;50.952;-0.120;2023-08-31T07:44:12;6.60;;;2.92;;
61393;SDS011;48555;50.952;-0.120;2023-08-31T07:46:37;5.90;;;3.20;;
61393;SDS011;48555;50.952;-0.120;2023-08-31T07:49:03;5.95;;;2.90;;
61393;SDS011;48555;50.952;-0.120;2023-08-31T07:51:29;6.88;;;2.90;;
61393;SDS011;48555;50.952;-0.120;2023-08-31T07:53:54;5.10;;;2.80;;
61393;SDS011;48555;50.952;-0.120;2023-08-31T07:56:20;5.93;;;3.30;;
61393;SDS011;48555;50.952;-0.120;2023-08-31T07:58:47;7.25;;;2.80;;
61393;SDS011;48555;50.952;-0.120;2023-08-31T08:01:12;6.95;;;3.28;;
61393;SDS011;48555;50.952;-0.120;2023-08-31T08:03:38;9.07;;;3.50;;
61393;SDS011;48555;50.952;-0.120;2023-08-31T08:06:03;8.68;;;3.08;;
61393;SDS011;48555;50.952;-0.120;2023-08-31T08:08:28;6.72;;;3.17;;
61393;SDS011;48555;50.952;-0.120;2023-08-31T08:10:54;7.32;;;3.25;;
61393;SDS011;48555;50.952;-0.120;2023-08-31T08:13:19;5.43;;;2.70;;
61393;SDS011;48555;50.952;-0.120;2023-08-31T08:15:45;6.38;;;2.92;;
61393;SDS011;48555;50.952;-0.120;2023-08-31T08:18:11;6.70;;;2.75;;
61393;SDS011;48555;50.952;-0.120;2023-08-31T08:20:36;4.90;;;2.75;;
61393;SDS011;48555;50.952;-0.120;2023-08-31T08:23:02;5.65;;;2.58;;
61393;SDS011;48555;50.952;-0.120;2023-08-31T08:25:27;6.47;;;2.70;;
61393;SDS011;48555;50.952;-0.120;2023-08-31T08:27:53;5.50;;;2.50;;
61393;SDS011;48555;50.952;-0.120;2023-08-31T08:30:18;7.57;;;2.38;;
61393;SDS011;48555;50.952;-0.120;2023-08-31T08:32:44;6.13;;;2.60;;
61393;SDS011;48555;50.952;-0.120;2023-08-31T08:35:10;4.70;;;2.38;;
61393;SDS011;48555;50.952;-0.120;2023-08-31T08:37:35;6.53;;;2.83;;
61393;SDS011;48555;50.952;-0.120;2023-08-31T08:40:01;5.50;;;2.45;;
61393;SDS011;48555;50.952;-0.120;2023-08-31T08:42:28;6.35;;;2.65;;
61393;SDS011;48555;50.952;-0.120;2023-08-31T08:44:56;9.27;;;2.95;;
61393;SDS011;48555;50.952;-0.120;2023-08-31T08:47:22;9.27;;;2.95;;
61393;SDS011;48555;50.952;-0.120;2023-08-31T08:49:47;7.30;;;2.90;;
61393;SDS011;48555;50.952;-0.120;2023-08-31T08:52:14;5.85;;;2.90;;
61393;SDS011;48555;50.952;-0.120;2023-08-31T08:54:40;6.57;;;3.05;;
61393;SDS011;48555;50.952;-0.120;2023-08-31T08:57:05;10.18;;;3.70;;
61393;SDS011;48555;50.952;-0.120;2023-08-31T08:59:31;7.75;;;3.45;;
61393;SDS011;48555;50.952;-0.120;2023-08-31T09:01:56;8.40;;;3.53;;
61393;SDS011;48555;50.952;-0.120;2023-08-31T09:04:22;8.13;;;3.80;;
61393;SDS011;48555;50.952;-0.120;2023-08-31T09:06:47;7.43;;;3.83;;
61393;SDS011;48555;50.952;-0.120;2023-08-31T09:09:13;9.75;;;3.60;;
61393;SDS011;48555;50.952;-0.120;2023-08-31T09:11:38;6.78;;;3.10;;
61393;SDS011;48555;50.952;-0.120;2023-08-31T09:14:16;6.57;;;2.72;;
61393;SDS011;48555;50.952;-0.120;2023-08-31T09:16:46;4.60;;;2.30;;
61393;SDS011;48555;50.952;-0.120;2023-08-31T09:19:23;4.72;;;2.20;;
61393;SDS011;48555;50.952;-0.120;2023-08-31T09:21:50;5.70;;;2.47;;
61393;SDS011;48555;50.952;-0.120;2023-08-31T09:24:16;5.80;;;2.20;;
61393;SDS011;48555;50.952;-0.120;2023-08-31T09:26:45;3.88;;;2.17;;
61393;SDS011;48555;50.952;-0.120;2023-08-31T09:29:12;7.18;;;2.95;;
61393;SDS011;48555;50.952;-0.120;2023-08-31T09:31:37;6.15;;;2.00;;
61393;SDS011;48555;50.952;-0.120;2023-08-31T09:34:06;4.68;;;2.20;;
61393;SDS011;48555;50.952;-0.120;2023-08-31T09:36:31;5.25;;;2.08;;
61393;SDS011;48555;50.952;-0.120;2023-08-31T09:38:57;6.10;;;2.38;;
61393;SDS011;48555;50.952;-0.120;2023-08-31T09:41:23;5.75;;;2.25;;
61393;SDS011;48555;50.952;-0.120;2023-08-31T09:43:49;7.50;;;2.40;;
61393;SDS011;48555;50.952;-0.120;2023-08-31T09:46:14;5.55;;;2.33;;
61393;SDS011;48555;50.952;-0.120;2023-08-31T09:48:40;6.50;;;2.67;;
61393;SDS011;48555;50.952;-0.120;2023-08-31T09:51:07;5.57;;;2.50;;
61393;SDS011;48555;50.952;-0.120;2023-08-31T09:53:35;7.45;;;2.67;;
61393;SDS011;48555;50.952;-0.120;2023-08-31T09:56:02;7.05;;;2.45;;
61393;SDS011;48555;50.952;-0.120;2023-08-31T09:58:32;6.40;;;2.20;;
61393;SDS011;48555;50.952;-0.120;2023-08-31T10:00:57;7.70;;;2.30;;
61393;SDS011;48555;50.952;-0.120;2023-08-31T10:03:24;7.78;;;2.30;;
61393;SDS011;48555;50.952;-0.120;2023-08-31T10:05:51;7.50;;;2.30;;
61393;SDS011;48555;50.952;-0.120;2023-08-31T10:08:16;6.55;;;2.00;;
61393;SDS011;48555;50.952;-0.120;2023-08-31T10:10:43;5.57;;;1.90;;
61393;SDS011;48555;50.952;-0.120;2023-08-31T10:13:08;5.97;;;2.10;;
61393;SDS011;48555;50.952;-0.120;2023-08-31T10:15:35;7.45;;;2.08;;
61393;SDS011;48555;50.952;-0.120;2023-08-31T10:18:01;9.48;;;2.15;;
61393;SDS011;48555;50.952;-0.120;2023-08-31T10:20:28;4.47;;;1.80;;
61393;SDS011;48555;50.952;-0.120;2023-08-31T10:22:56;6.78;;;2.30;;
61393;SDS011;48555;50.952;-0.120;2023-08-31T10:25:23;5.25;;;1.70;;
61393;SDS011;48555;50.952;-0.120;2023-08-31T10:27:48;6.43;;;2.13;;
61393;SDS011;48555;50.952;-0.120;2023-08-31T10:30:24;7.97;;;2.38;;
61393;SDS011;48555;50.952;-0.120;2023-08-31T10:35:41;7.85;;;2.05;;
61393;SDS011;48555;50.952;-0.120;2023-08-31T10:43:44;7.22;;;2.35;;
61393;SDS011;48555;50.952;-0.120;2023-08-31T10:46:16;5.53;;;2.03;;
61393;SDS011;48555;50.952;-0.120;2023-08-31T10:51:20;7.10;;;2.25;;
61393;SDS011;48555;50.952;-0.120;2023-08-31T10:53:47;4.32;;;1.85;;
61393;SDS011;48555;50.952;-0.120;2023-08-31T10:56:12;7.15;;;2.28;;
61393;SDS011;48555;50.952;-0.120;2023-08-31T10:58:41;6.60;;;2.30;;
61393;SDS011;48555;50.952;-0.120;2023-08-31T11:01:06;5.50;;;2.25;;
61393;SDS011;48555;50.952;-0.120;2023-08-31T11:03:31;5.50;;;1.90;;
61393;SDS011;48555;50.952;-0.120;2023-08-31T11:05:57;6.88;;;2.28;;
61393;SDS011;48555;50.952;-0.120;2023-08-31T11:08:23;5.93;;;2.10;;
61393;SDS011;48555;50.952;-0.120;2023-08-31T11:10:49;7.15;;;2.05;;
61393;SDS011;48555;50.952;-0.120;2023-08-31T11:13:20;7.20;;;2.20;;
61393;SDS011;48555;50.952;-0.120;2023-08-31T11:15:48;7.53;;;2.45;;
61393;SDS011;48555;50.952;-0.120;2023-08-31T11:18:13;5.18;;;2.15;;
61393;SDS011;48555;50.952;-0.120;2023-08-31T11:20:42;7.07;;;2.03;;
61393;SDS011;48555;50.952;-0.120;2023-08-31T11:23:09;7.28;;;2.30;;
61393;SDS011;48555;50.952;-0.120;2023-08-31T11:25:34;6.32;;;2.20;;
61393;SDS011;48555;50.952;-0.120;2023-08-31T11:28:01;4.82;;;1.85;;
61393;SDS011;48555;50.952;-0.120;2023-08-31T11:30:30;6.40;;;1.77;;
61393;SDS011;48555;50.952;-0.120;2023-08-31T11:33:06;8.55;;;2.70;;
61393;SDS011;48555;50.952;-0.120;2023-08-31T11:35:36;5.82;;;1.92;;
61393;SDS011;48555;50.952;-0.120;2023-08-31T11:38:03;5.03;;;1.95;;
61393;SDS011;48555;50.952;-0.120;2023-08-31T11:40:29;4.18;;;2.13;;
61393;SDS011;48555;50.952;-0.120;2023-08-31T11:42:55;5.40;;;2.17;;
61393;SDS011;48555;50.952;-0.120;2023-08-31T11:45:21;6.63;;;1.92;;
61393;SDS011;48555;50.952;-0.120;2023-08-31T11:47:49;6.03;;;1.80;;
61393;SDS011;48555;50.952;-0.120;2023-08-31T11:50:15;7.65;;;2.40;;
61393;SDS011;48555;50.952;-0.120;2023-08-31T11:52:41;5.90;;;2.08;;
61393;SDS011;48555;50.952;-0.120;2023-08-31T11:55:11;6.40;;;1.90;;
61393;SDS011;48555;50.952;-0.120;2023-08-31T11:57:39;7.35;;;1.92;;
61393;SDS011;48555;50.952;-0.120;2023-08-31T12:00:05;5.65;;;2.25;;
61393;SDS011;48555;50.952;-0.120;2023-08-31T12:02:35;5.22;;;1.73;;
61393;SDS011;48555;50.952;-0.120;2023-08-31T12:05:01;8.02;;;1.90;;
61393;SDS011;48555;50.952;-0.120;2023-08-31T12:07:26;6.13;;;2.13;;
61393;SDS011;48555;50.952;-0.120;2023-08-31T12:09:51;5.15;;;1.77;;
61393;SDS011;48555;50.952;-0.120;2023-08-31T12:12:20;6.97;;;2.28;;
61393;SDS011;48555;50.952;-0.120;2023-08-31T12:14:46;4.30;;;1.60;;
61393;SDS011;48555;50.952;-0.120;2023-08-31T12:17:12;7.75;;;2.10;;
61393;SDS011;48555;50.952;-0.120;2023-08-31T12:19:38;5.53;;;2.10;;
61393;SDS011;48555;50.952;-0.120;2023-08-31T12:22:04;5.18;;;1.80;;
61393;SDS011;48555;50.952;-0.120;2023-08-31T12:24:41;5.75;;;1.80;;
61393;SDS011;48555;50.952;-0.120;2023-08-31T12:27:07;4.78;;;1.50;;
61393;SDS011;48555;50.952;-0.120;2023-08-31T12:29:33;5.75;;;2.05;;
61393;SDS011;48555;50.952;-0.120;2023-08-31T12:31:58;6.00;;;2.00;;
61393;SDS011;48555;50.952;-0.120;2023-08-31T12:34:24;5.57;;;2.15;;
61393;SDS011;48555;50.952;-0.120;2023-08-31T12:36:49;4.13;;;1.83;;
61393;SDS011;48555;50.952;-0.120;2023-08-31T12:39:14;5.70;;;1.75;;
61393;SDS011;48555;50.952;-0.120;2023-08-31T12:41:40;5.28;;;1.65;;
61393;SDS011;48555;50.952;-0.120;2023-08-31T12:44:08;6.32;;;1.90;;
61393;SDS011;48555;50.952;-0.120;2023-08-31T12:46:33;3.85;;;1.55;;
61393;SDS011;48555;50.952;-0.120;2023-08-31T12:49:00;3.97;;;1.40;;
61393;SDS011;48555;50.952;-0.120;2023-08-31T12:51:26;6.38;;;1.77;;
61393;SDS011;48555;50.952;-0.120;2023-08-31T12:53:52;5.22;;;1.95;;
61393;SDS011;48555;50.952;-0.120;2023-08-31T12:56:18;4.85;;;2.00;;
61393;SDS011;48555;50.952;-0.120;2023-08-31T12:58:50;5.75;;;1.65;;
61393;SDS011;48555;50.952;-0.120;2023-08-31T13:01:16;4.60;;;1.70;;
61393;SDS011;48555;50.952;-0.120;2023-08-31T13:03:43;4.07;;;2.00;;
61393;SDS011;48555;50.952;-0.120;2023-08-31T13:06:08;4.68;;;1.63;;
61393;SDS011;48555;50.952;-0.120;2023-08-31T13:08:34;4.82;;;1.80;;
61393;SDS011;48555;50.952;-0.120;2023-08-31T13:10:59;5.20;;;1.63;;
61393;SDS011;48555;50.952;-0.120;2023-08-31T13:13:25;5.22;;;1.80;;
61393;SDS011;48555;50.952;-0.120;2023-08-31T13:15:51;5.15;;;1.85;;
61393;SDS011;48555;50.952;-0.120;2023-08-31T13:18:16;4.82;;;1.60;;
61393;SDS011;48555;50.952;-0.120;2023-08-31T13:20:48;4.90;;;1.85;;
61393;SDS011;48555;50.952;-0.120;2023-08-31T13:23:14;4.72;;;1.85;;
61393;SDS011;48555;50.952;-0.120;2023-08-31T13:25:39;3.88;;;1.30;;
61393;SDS011;48555;50.952;-0.120;2023-08-31T13:28:05;3.95;;;1.52;;
61393;SDS011;48555;50.952;-0.120;2023-08-31T13:30:30;3.55;;;1.70;;
61393;SDS011;48555;50.952;-0.120;2023-08-31T13:32:56;4.55;;;1.55;;
61393;SDS011;48555;50.952;-0.120;2023-08-31T13:35:21;6.93;;;2.08;;
61393;SDS011;48555;50.952;-0.120;2023-08-31T13:37:46;4.60;;;1.60;;
61393;SDS011;48555;50.952;-0.120;2023-08-31T13:40:11;2.88;;;1.52;;
61393;SDS011;48555;50.952;-0.120;2023-08-31T13:42:48;4.00;;;1.50;;
61393;SDS011;48555;50.952;-0.120;2023-08-31T13:45:17;2.83;;;1.45;;
61393;SDS011;48555;50.952;-0.120;2023-08-31T13:47:43;1.92;;;1.10;;
61393;SDS011;48555;50.952;-0.120;2023-08-31T13:50:12;2.83;;;1.23;;
61393;SDS011;48555;50.952;-0.120;2023-08-31T13:52:37;4.40;;;1.50;;
61393;SDS011;48555;50.952;-0.120;2023-08-31T13:55:03;3.60;;;1.10;;
61393;SDS011;48555;50.952;-0.120;2023-08-31T13:57:28;3.00;;;1.20;;
61393;SDS011;48555;50.952;-0.120;2023-08-31T13:59:54;5.30;;;1.35;;
61393;SDS011;48555;50.952;-0.120;2023-08-31T14:02:19;2.25;;;1.10;;
61393;SDS011;48555;50.952;-0.120;2023-08-31T14:04:44;3.67;;;1.70;;
61393;SDS011;48555;50.952;-0.120;2023-08-31T14:07:10;4.88;;;2.10;;
61393;SDS011;48555;50.952;-0.120;2023-08-31T14:09:35;4.50;;;1.30;;
61393;SDS011;48555;50.952;-0.120;2023-08-31T14:12:00;3.17;;;1.30;;
61393;SDS011;48555;50.952;-0.120;2023-08-31T14:14:26;2.95;;;1.52;;
61393;SDS011;48555;50.952;-0.120;2023-08-31T14:16:52;2.70;;;1.48;;
61393;SDS011;48555;50.952;-0.120;2023-08-31T14:19:17;2.40;;;1.30;;
61393;SDS011;48555;50.952;-0.120;2023-08-31T14:21:44;4.07;;;1.52;;
61393;SDS011;48555;50.952;-0.120;2023-08-31T14:24:09;3.70;;;1.40;;
61393;SDS011;48555;50.952;-0.120;2023-08-31T14:26:35;1.73;;;1.30;;
61393;SDS011;48555;50.952;-0.120;2023-08-31T14:29:00;2.50;;;1.40;;
61393;SDS011;48555;50.952;-0.120;2023-08-31T14:31:26;3.03;;;1.20;;
61393;SDS011;48555;50.952;-0.120;2023-08-31T14:33:51;1.75;;;1.20;;
61393;SDS011;48555;50.952;-0.120;2023-08-31T14:36:17;2.30;;;1.30;;
61393;SDS011;48555;50.952;-0.120;2023-08-31T14:38:42;2.13;;;1.33;;
61393;SDS011;48555;50.952;-0.120;2023-08-31T14:41:08;2.13;;;1.40;;
61393;SDS011;48555;50.952;-0.120;2023-08-31T14:43:34;3.25;;;1.42;;
61393;SDS011;48555;50.952;-0.120;2023-08-31T14:45:59;2.70;;;1.58;;
61393;SDS011;48555;50.952;-0.120;2023-08-31T14:48:29;3.08;;;1.40;;
61393;SDS011;48555;50.952;-0.120;2023-08-31T14:50:55;3.35;;;1.35;;
61393;SDS011;48555;50.952;-0.120;2023-08-31T14:53:20;1.35;;;1.10;;
61393;SDS011;48555;50.952;-0.120;2023-08-31T14:55:51;2.70;;;1.40;;
61393;SDS011;48555;50.952;-0.120;2023-08-31T14:58:17;2.15;;;1.15;;
61393;SDS011;48555;50.952;-0.120;2023-08-31T15:00:43;2.65;;;1.27;;
61393;SDS011;48555;50.952;-0.120;2023-08-31T15:03:09;3.22;;;1.20;;
61393;SDS011;48555;50.952;-0.120;2023-08-31T15:05:35;1.98;;;0.90;;
61393;SDS011;48555;50.952;-0.120;2023-08-31T15:08:01;2.40;;;1.27;;
61393;SDS011;48555;50.952;-0.120;2023-08-31T15:10:28;3.30;;;0.98;;
61393;SDS011;48555;50.952;-0.120;2023-08-31T15:12:53;2.17;;;0.90;;
61393;SDS011;48555;50.952;-0.120;2023-08-31T15:15:23;2.97;;;1.27;;
61393;SDS011;48555;50.952;-0.120;2023-08-31T15:17:48;2.00;;;0.95;;
61393;SDS011;48555;50.952;-0.120;2023-08-31T15:20:14;2.42;;;0.95;;
61393;SDS011;48555;50.952;-0.120;2023-08-31T15:22:39;2.80;;;1.30;;
61393;SDS011;48555;50.952;-0.120;2023-08-31T15:25:05;2.47;;;1.13;;
61393;SDS011;48555;50.952;-0.120;2023-08-31T15:27:30;1.95;;;0.90;;
61393;SDS011;48555;50.952;-0.120;2023-08-31T15:29:56;2.47;;;0.82;;
61393;SDS011;48555;50.952;-0.120;2023-08-31T15:32:21;1.05;;;0.80;;
61393;SDS011;48555;50.952;-0.120;2023-08-31T15:34:46;3.35;;;1.10;;
61393;SDS011;48555;50.952;-0.120;2023-08-31T15:37:12;2.05;;;0.85;;
61393;SDS011;48555;50.952;-0.120;2023-08-31T15:39:37;1.30;;;0.70;;
61393;SDS011;48555;50.952;-0.120;2023-08-31T15:42:03;3.60;;;0.95;;
61393;SDS011;48555;50.952;-0.120;2023-08-31T15:44:28;3.33;;;1.05;;
61393;SDS011;48555;50.952;-0.120;2023-08-31T15:46:54;1.60;;;0.82;;
61393;SDS011;48555;50.952;-0.120;2023-08-31T15:49:19;2.55;;;0.80;;
61393;SDS011;48555;50.952;-0.120;2023-08-31T15:51:44;2.75;;;0.88;;
61393;SDS011;48555;50.952;-0.120;2023-08-31T15:54:10;2.45;;;0.95;;
61393;SDS011;48555;50.952;-0.120;2023-08-31T15:56:35;2.22;;;1.10;;
61393;SDS011;48555;50.952;-0.120;2023-08-31T15:59:01;1.60;;;0.73;;
61393;SDS011;48555;50.952;-0.120;2023-08-31T16:01:26;3.97;;;1.17;;
61393;SDS011;48555;50.952;-0.120;2023-08-31T16:03:52;1.98;;;0.85;;
61393;SDS011;48555;50.952;-0.120;2023-08-31T16:06:17;1.70;;;1.17;;
61393;SDS011;48555;50.952;-0.120;2023-08-31T16:08:43;1.83;;;1.10;;
61393;SDS011;48555;50.952;-0.120;2023-08-31T16:11:08;1.33;;;0.90;;
61393;SDS011;48555;50.952;-0.120;2023-08-31T16:13:33;1.65;;;0.80;;
61393;SDS011;48555;50.952;-0.120;2023-08-31T16:16:02;1.63;;;0.90;;
61393;SDS011;48555;50.952;-0.120;2023-08-31T16:18:28;1.77;;;0.90;;
61393;SDS011;48555;50.952;-0.120;2023-08-31T16:20:53;1.70;;;0.88;;
61393;SDS011;48555;50.952;-0.120;2023-08-31T16:23:18;1.27;;;0.60;;
61393;SDS011;48555;50.952;-0.120;2023-08-31T16:25:44;0.52;;;0.40;;
61393;SDS011;48555;50.952;-0.120;2023-08-31T16:28:10;1.98;;;0.50;;
61393;SDS011;48555;50.952;-0.120;2023-08-31T16:30:35;1.17;;;0.40;;
61393;SDS011;48555;50.952;-0.120;2023-08-31T16:33:01;1.15;;;0.50;;
61393;SDS011;48555;50.952;-0.120;2023-08-31T16:35:26;0.82;;;0.50;;
61393;SDS011;48555;50.952;-0.120;2023-08-31T16:37:53;0.50;;;0.50;;
61393;SDS011;48555;50.952;-0.120;2023-08-31T16:40:19;0.30;;;0.30;;
61393;SDS011;48555;50.952;-0.120;2023-08-31T16:42:45;1.00;;;0.40;;
61393;SDS011;48555;50.952;-0.120;2023-08-31T16:45:10;0.85;;;0.47;;
61393;SDS011;48555;50.952;-0.120;2023-08-31T16:47:36;0.55;;;0.40;;
61393;SDS011;48555;50.952;-0.120;2023-08-31T16:50:02;1.58;;;0.47;;
61393;SDS011;48555;50.952;-0.120;2023-08-31T16:52:30;0.40;;;0.40;;
61393;SDS011;48555;50.952;-0.120;2023-08-31T16:54:57;0.77;;;0.38;;
61393;SDS011;48555;50.952;-0.120;2023-08-31T16:57:23;1.95;;;0.50;;
61393;SDS011;48555;50.952;-0.120;2023-08-31T16:59:49;2.65;;;0.50;;
61393;SDS011;48555;50.952;-0.120;2023-08-31T17:02:14;0.28;;;0.28;;
61393;SDS011;48555;50.952;-0.120;2023-08-31T17:04:39;0.65;;;0.50;;
61393;SDS011;48555;50.952;-0.120;2023-08-31T17:07:05;1.77;;;0.95;;
61393;SDS011;48555;50.952;-0.120;2023-08-31T17:09:30;1.13;;;0.90;;
61393;SDS011;48555;50.952;-0.120;2023-08-31T17:11:56;1.40;;;1.05;;
61393;SDS011;48555;50.952;-0.120;2023-08-31T17:14:24;0.45;;;0.45;;
61393;SDS011;48555;50.952;-0.120;2023-08-31T17:16:50;0.60;;;0.52;;
61393;SDS011;48555;50.952;-0.120;2023-08-31T17:19:15;1.80;;;0.80;;
61393;SDS011;48555;50.952;-0.120;2023-08-31T17:21:41;1.05;;;0.75;;
61393;SDS011;48555;50.952;-0.120;2023-08-31T17:24:06;1.23;;;0.90;;
61393;SDS011;48555;50.952;-0.120;2023-08-31T17:26:32;1.35;;;0.88;;
61393;SDS011;48555;50.952;-0.120;2023-08-31T17:28:57;2.40;;;0.80;;
61393;SDS011;48555;50.952;-0.120;2023-08-31T17:31:22;1.50;;;0.80;;
61393;SDS011;48555;50.952;-0.120;2023-08-31T17:33:48;1.75;;;0.70;;
61393;SDS011;48555;50.952;-0.120;2023-08-31T17:36:14;1.65;;;0.60;;
61393;SDS011;48555;50.952;-0.120;2023-08-31T17:38:42;1.27;;;0.85;;
61393;SDS011;48555;50.952;-0.120;2023-08-31T17:41:08;1.63;;;1.08;;
61393;SDS011;48555;50.952;-0.120;2023-08-31T17:43:34;3.05;;;1.00;;
61393;SDS011;48555;50.952;-0.120;2023-08-31T17:45:59;1.20;;;0.90;;
61393;SDS011;48555;50.952;-0.120;2023-08-31T17:48:25;2.65;;;1.20;;
61393;SDS011;48555;50.952;-0.120;2023-08-31T17:50:51;0.80;;;0.80;;
61393;SDS011;48555;50.952;-0.120;2023-08-31T17:53:17;2.83;;;1.20;;
61393;SDS011;48555;50.952;-0.120;2023-08-31T17:55:43;2.38;;;1.20;;
61393;SDS011;48555;50.952;-0.120;2023-08-31T17:58:08;1.85;;;1.13;;
61393;SDS011;48555;50.952;-0.120;2023-08-31T18:00:33;2.38;;;0.93;;
61393;SDS011;48555;50.952;-0.120;2023-08-31T18:02:59;4.05;;;1.23;;
61393;SDS011;48555;50.952;-0.120;2023-08-31T18:05:25;1.63;;;0.90;;
61393;SDS011;48555;50.952;-0.120;2023-08-31T18:07:50;2.00;;;1.02;;
61393;SDS011;48555;50.952;-0.120;2023-08-31T18:10:16;2.30;;;0.90;;
61393;SDS011;48555;50.952;-0.120;2023-08-31T18:12:46;1.50;;;0.85;;
61393;SDS011;48555;50.952;-0.120;2023-08-31T18:15:12;2.45;;;0.80;;
61393;SDS011;48555;50.952;-0.120;2023-08-31T18:17:37;2.33;;;0.95;;
61393;SDS011;48555;50.952;-0.120;2023-08-31T18:20:02;2.42;;;1.08;;
61393;SDS011;48555;50.952;-0.120;2023-08-31T18:22:28;2.75;;;1.30;;
61393;SDS011;48555;50.952;-0.120;2023-08-31T18:24:54;2.63;;;1.23;;
61393;SDS011;48555;50.952;-0.120;2023-08-31T18:27:19;1.27;;;1.10;;
61393;SDS011;48555;50.952;-0.120;2023-08-31T18:29:44;1.70;;;1.17;;
61393;SDS011;48555;50.952;-0.120;2023-08-31T18:32:10;3.33;;;1.40;;
61393;SDS011;48555;50.952;-0.120;2023-08-31T18:34:37;3.10;;;1.60;;
61393;SDS011;48555;50.952;-0.120;2023-08-31T18:37:03;2.13;;;1.38;;
61393;SDS011;48555;50.952;-0.120;2023-08-31T18:39:28;3.38;;;1.38;;
61393;SDS011;48555;50.952;-0.120;2023-08-31T18:41:54;1.65;;;1.20;;
61393;SDS011;48555;50.952;-0.120;2023-08-31T18:44:19;1.88;;;1.40;;
61393;SDS011;48555;50.952;-0.120;2023-08-31T18:46:45;2.45;;;1.50;;
61393;SDS011;48555;50.952;-0.120;2023-08-31T18:49:11;1.73;;;1.52;;
61393;SDS011;48555;50.952;-0.120;2023-08-31T18:51:36;4.25;;;1.50;;
61393;SDS011;48555;50.952;-0.120;2023-08-31T18:54:05;2.90;;;1.60;;
61393;SDS011;48555;50.952;-0.120;2023-08-31T18:56:30;3.20;;;1.60;;
61393;SDS011;48555;50.952;-0.120;2023-08-31T18:58:56;1.63;;;1.52;;
61393;SDS011;48555;50.952;-0.120;2023-08-31T19:01:21;3.25;;;1.65;;
61393;SDS011;48555;50.952;-0.120;2023-08-31T19:03:46;4.13;;;2.00;;
61393;SDS011;48555;50.952;-0.120;2023-08-31T19:06:13;4.22;;;1.80;;
61393;SDS011;48555;50.952;-0.120;2023-08-31T19:08:39;3.42;;;1.92;;
61393;SDS011;48555;50.952;-0.120;2023-08-31T19:11:07;5.32;;;1.83;;
61393;SDS011;48555;50.952;-0.120;2023-08-31T19:13:33;3.20;;;2.17;;
61393;SDS011;48555;50.952;-0.120;2023-08-31T19:15:59;4.43;;;2.20;;
61393;SDS011;48555;50.952;-0.120;2023-08-31T19:18:26;4.15;;;2.45;;
61393;SDS011;48555;50.952;-0.120;2023-08-31T19:20:52;3.53;;;2.30;;
61393;SDS011;48555;50.952;-0.120;2023-08-31T19:23:17;4.57;;;2.25;;
61393;SDS011;48555;50.952;-0.120;2023-08-31T19:25:42;4.90;;;2.53;;
61393;SDS011;48555;50.952;-0.120;2023-08-31T19:28:08;3.97;;;2.72;;
61393;SDS011;48555;50.952;-0.120;2023-08-31T19:30:33;3.75;;;2.60;;
61393;SDS011;48555;50.952;-0.120;2023-08-31T19:32:59;6.13;;;2.78;;
61393;SDS011;48555;50.952;-0.120;2023-08-31T19:35:26;4.88;;;2.58;;
61393;SDS011;48555;50.952;-0.120;2023-08-31T19:37:52;8.00;;;2.88;;
61393;SDS011;48555;50.952;-0.120;2023-08-31T19:40:20;8.60;;;3.00;;
61393;SDS011;48555;50.952;-0.120;2023-08-31T19:42:46;6.40;;;2.92;;
61393;SDS011;48555;50.952;-0.120;2023-08-31T19:45:13;6.00;;;2.70;;
61393;SDS011;48555;50.952;-0.120;2023-08-31T19:47:39;12.77;;;3.40;;
61393;SDS011;48555;50.952;-0.120;2023-08-31T19:50:05;5.75;;;3.20;;
61393;SDS011;48555;50.952;-0.120;2023-08-31T19:52:31;11.88;;;3.80;;
61393;SDS011;48555;50.952;-0.120;2023-08-31T19:54:57;16.65;;;3.58;;
61393;SDS011;48555;50.952;-0.120;2023-08-31T19:57:22;13.75;;;3.47;;
61393;SDS011;48555;50.952;-0.120;2023-08-31T19:59:50;12.85;;;3.65;;
61393;SDS011;48555;50.952;-0.120;2023-08-31T20:02:15;16.70;;;3.53;;
61393;SDS011;48555;50.952;-0.120;2023-08-31T20:04:41;18.02;;;3.60;;
61393;SDS011;48555;50.952;-0.120;2023-08-31T20:07:07;8.57;;;3.60;;
61393;SDS011;48555;50.952;-0.120;2023-08-31T20:09:36;19.27;;;3.90;;
61393;SDS011;48555;50.952;-0.120;2023-08-31T20:12:01;19.13;;;3.75;;
61393;SDS011;48555;50.952;-0.120;2023-08-31T20:14:28;13.50;;;3.58;;
61393;SDS011;48555;50.952;-0.120;2023-08-31T20:16:53;13.20;;;4.30;;
61393;SDS011;48555;50.952;-0.120;2023-08-31T20:19:18;18.20;;;3.80;;
61393;SDS011;48555;50.952;-0.120;2023-08-31T20:21:44;10.52;;;3.97;;
61393;SDS011;48555;50.952;-0.120;2023-08-31T20:24:09;7.63;;;3.47;;
61393;SDS011;48555;50.952;-0.120;2023-08-31T20:26:34;8.48;;;3.63;;
61393;SDS011;48555;50.952;-0.120;2023-08-31T20:29:00;4.88;;;2.58;;
61393;SDS011;48555;50.952;-0.120;2023-08-31T20:31:26;6.28;;;2.80;;
61393;SDS011;48555;50.952;-0.120;2023-08-31T20:33:52;5.68;;;2.75;;
61393;SDS011;48555;50.952;-0.120;2023-08-31T20:36:17;8.55;;;3.38;;
61393;SDS011;48555;50.952;-0.120;2023-08-31T20:38:43;4.95;;;3.00;;
61393;SDS011;48555;50.952;-0.120;2023-08-31T20:41:14;5.57;;;3.42;;
61393;SDS011;48555;50.952;-0.120;2023-08-31T20:43:40;5.80;;;3.25;;
61393;SDS011;48555;50.952;-0.120;2023-08-31T20:46:06;4.28;;;2.92;;